Time;durP1;ratioP1;P1;durP2;ratioP2;P2;SDS_P1;SDS_P2;PMS_P1;PMS_P2;Temp;Humidity;BMP_temperature;BMP_pressure;BME280_temperature;BME280_humidity;BME280_pressure;Samples;Min_cycle;Max_cycle;Signal;HPM_P1;HPM_P2
2022/01/29 00:00:17;;;;;;;8.83;6.13;;;16.00;58.50;;;;;;5024092;28;20452;-80
2022/01/29 00:02:45;;;;;;;8.53;6.03;;;16.00;58.50;;;;;;5021855;28;20472;-81
2022/01/29 00:05:14;;;;;;;13.13;5.87;;;16.00;58.40;;;;;;5026459;28;20496;-82
2022/01/29 00:07:43;;;;;;;9.13;5.80;;;16.00;58.40;;;;;;5023540;28;20468;-82
2022/01/29 00:10:11;;;;;;;9.33;6.27;;;16.00;58.50;;;;;;5027975;28;20448;-82
2022/01/29 00:12:39;;;;;;;10.60;5.63;;;16.10;58.60;;;;;;5025734;28;20432;-82
2022/01/29 00:15:08;;;;;;;9.53;6.60;;;16.10;58.60;;;;;;5028066;28;20467;-81
2022/01/29 00:17:36;;;;;;;8.30;5.57;;;16.10;58.50;;;;;;5020009;28;20512;-82
2022/01/29 00:20:04;;;;;;;8.53;5.97;;;16.10;58.50;;;;;;5025355;28;20500;-82
2022/01/29 00:22:34;;;;;;;10.90;5.50;;;16.10;58.60;;;;;;5026974;28;20480;-82
2022/01/29 00:25:02;;;;;;;9.40;6.37;;;16.10;58.60;;;;;;5022130;28;20463;-83
2022/01/29 00:27:34;;;;;;;8.20;5.80;;;16.00;58.40;;;;;;5020873;28;20487;-83
2022/01/29 00:30:06;;;;;;;9.73;6.10;;;16.10;58.40;;;;;;5025353;28;20485;-83
2022/01/29 00:32:34;;;;;;;10.53;7.03;;;16.10;58.50;;;;;;5017326;28;20449;-83
2022/01/29 00:35:02;;;;;;;12.57;7.40;;;16.10;58.50;;;;;;5020473;28;20469;-83
2022/01/29 00:37:34;;;;;;;9.40;5.93;;;16.00;58.50;;;;;;5029520;28;20448;-83
2022/01/29 00:40:03;;;;;;;13.27;7.20;;;16.00;58.50;;;;;;5024147;28;20456;-84
2022/01/29 00:42:31;;;;;;;13.03;6.33;;;16.00;58.60;;;;;;5022265;28;21030;-83
2022/01/29 00:44:59;;;;;;;11.30;6.73;;;16.00;58.70;;;;;;5023028;28;20571;-83
2022/01/29 00:47:27;;;;;;;11.53;7.53;;;16.00;58.50;;;;;;5026835;28;20429;-83
2022/01/29 00:49:55;;;;;;;11.80;7.23;;;16.00;58.60;;;;;;5018348;28;20445;-83
2022/01/29 00:52:23;;;;;;;13.50;7.57;;;16.00;58.60;;;;;;5023596;28;20452;-83
2022/01/29 00:54:52;;;;;;;12.93;7.93;;;16.00;58.80;;;;;;5027188;28;20463;-83
2022/01/29 00:57:20;;;;;;;11.20;7.47;;;15.90;58.60;;;;;;5023852;28;20441;-83
2022/01/29 00:59:48;;;;;;;12.50;8.00;;;15.90;58.70;;;;;;5026313;28;20444;-83
2022/01/29 01:02:16;;;;;;;13.60;7.53;;;16.00;58.80;;;;;;5023599;28;20441;-82
2022/01/29 01:04:44;;;;;;;12.80;7.70;;;16.00;58.70;;;;;;5021954;28;20495;-82
2022/01/29 01:07:13;;;;;;;16.60;8.50;;;15.90;58.60;;;;;;5028084;28;20479;-81
2022/01/29 01:09:40;;;;;;;12.37;8.50;;;15.90;58.60;;;;;;5017830;28;20732;-81
2022/01/29 01:12:11;;;;;;;14.73;8.60;;;15.90;58.70;;;;;;5024249;28;20532;-82
2022/01/29 01:14:39;;;;;;;14.57;7.90;;;15.90;58.70;;;;;;5016022;28;20519;-82
2022/01/29 01:17:08;;;;;;;16.30;8.37;;;15.90;58.70;;;;;;5024838;28;20456;-82
2022/01/29 01:19:36;;;;;;;12.70;8.60;;;15.90;58.70;;;;;;5013911;28;20459;-82
2022/01/29 01:22:05;;;;;;;15.87;9.43;;;15.90;58.70;;;;;;5022355;28;20452;-82
2022/01/29 01:24:33;;;;;;;13.03;9.00;;;15.90;58.80;;;;;;5021783;28;20468;-81
2022/01/29 01:27:01;;;;;;;12.43;8.17;;;15.90;58.80;;;;;;5024218;28;20541;-82
2022/01/29 01:29:30;;;;;;;16.40;9.67;;;15.90;58.80;;;;;;5020410;28;20455;-81
2022/01/29 01:31:58;;;;;;;14.40;9.27;;;15.90;58.80;;;;;;5020229;28;20517;-81
2022/01/29 01:34:31;;;;;;;14.30;9.80;;;15.90;58.80;;;;;;5020009;28;20465;-82
2022/01/29 01:37:04;;;;;;;17.17;10.33;;;15.90;58.80;;;;;;5022051;28;20448;-82
2022/01/29 01:39:35;;;;;;;16.00;9.60;;;15.90;58.90;;;;;;5024547;28;20462;-82
2022/01/29 01:42:05;;;;;;;17.93;10.77;;;15.90;58.90;;;;;;5024428;28;20475;-82
2022/01/29 01:44:36;;;;;;;14.80;9.90;;;15.90;58.80;;;;;;5022963;28;20472;-82
2022/01/29 01:47:04;;;;;;;17.87;10.63;;;15.80;58.90;;;;;;5028394;28;20472;-82
2022/01/29 01:49:32;;;;;;;16.00;10.23;;;15.80;58.90;;;;;;5018727;28;20461;-82
2022/01/29 01:52:01;;;;;;;16.77;9.90;;;15.80;58.90;;;;;;5011966;28;20480;-85
2022/01/29 01:54:29;;;;;;;16.97;10.10;;;15.80;58.90;;;;;;5014356;28;20472;-87
2022/01/29 01:57:23;;;;;;;19.83;10.90;;;15.80;58.90;;;;;;4952533;29;20497;-85
2022/01/29 01:59:52;;;;;;;17.50;10.33;;;15.80;58.90;;;;;;4955977;29;20452;-85
2022/01/29 02:02:21;;;;;;;14.90;10.03;;;15.80;58.90;;;;;;4952974;28;20467;-83
2022/01/29 02:04:49;;;;;;;16.10;10.23;;;15.80;58.90;;;;;;4972850;28;20519;-86
2022/01/29 02:07:18;;;;;;;16.63;9.83;;;15.80;58.90;;;;;;4975952;28;20513;-84
2022/01/29 02:09:46;;;;;;;16.80;10.80;;;15.80;58.90;;;;;;4976428;28;20434;-82
2022/01/29 02:12:14;;;;;;;19.07;11.63;;;15.80;59.00;;;;;;4976755;28;20454;-81
2022/01/29 02:14:45;;;;;;;19.87;11.20;;;15.80;59.00;;;;;;4976704;28;20521;-82
2022/01/29 02:17:16;;;;;;;19.10;11.30;;;15.90;59.00;;;;;;4976820;28;20469;-85
2022/01/29 02:19:44;;;;;;;20.50;11.40;;;15.80;59.00;;;;;;4979136;28;20430;-83
2022/01/29 02:22:22;;;;;;;18.40;10.90;;;15.80;59.00;;;;;;4976576;28;20434;-81
2022/01/29 02:24:50;;;;;;;17.20;10.60;;;15.90;59.00;;;;;;4976661;28;21028;-81
2022/01/29 02:27:18;;;;;;;17.80;11.27;;;15.80;58.90;;;;;;4973504;28;20625;-81
2022/01/29 02:29:48;;;;;;;17.43;11.07;;;15.80;59.00;;;;;;4973619;28;20502;-80
2022/01/29 02:32:17;;;;;;;18.80;11.57;;;15.90;59.10;;;;;;4973308;28;20516;-84
2022/01/29 02:34:45;;;;;;;22.10;11.97;;;15.90;59.00;;;;;;5017872;28;20460;-84
2022/01/29 02:37:13;;;;;;;18.13;10.60;;;15.90;58.90;;;;;;5011323;28;20476;-84
2022/01/29 02:39:43;;;;;;;16.80;11.33;;;15.90;58.90;;;;;;5002978;28;20486;-84
2022/01/29 02:42:11;;;;;;;19.10;10.97;;;15.90;58.90;;;;;;4996026;28;20470;-85
2022/01/29 02:44:39;;;;;;;16.43;11.07;;;15.90;58.90;;;;;;5009173;28;20456;-83
2022/01/29 02:47:25;;;;;;;16.50;10.50;;;15.90;58.90;;;;;;5016273;28;20507;-83
2022/01/29 02:49:54;;;;;;;20.20;11.20;;;15.90;58.90;;;;;;5012558;28;20460;-83
2022/01/29 02:52:22;;;;;;;22.13;12.00;;;15.90;59.00;;;;;;5015169;28;20432;-82
2022/01/29 02:54:51;;;;;;;17.83;11.30;;;15.90;58.90;;;;;;5014963;28;20514;-84
2022/01/29 02:57:20;;;;;;;18.50;11.53;;;15.90;59.50;;;;;;5015685;28;20437;-81
2022/01/29 02:59:49;;;;;;;16.60;10.57;;;15.90;58.90;;;;;;5015494;28;20437;-81
2022/01/29 03:02:17;;;;;;;19.77;11.67;;;15.90;58.90;;;;;;5014950;28;20447;-81
2022/01/29 03:04:45;;;;;;;20.93;10.97;;;15.90;58.90;;;;;;5017055;28;20503;-80
2022/01/29 03:07:13;;;;;;;19.90;11.73;;;15.90;59.00;;;;;;5011811;28;20496;-82
2022/01/29 03:09:41;;;;;;;16.10;10.23;;;15.90;58.90;;;;;;5016396;28;20449;-82
2022/01/29 03:12:11;;;;;;;17.90;10.73;;;15.90;59.00;;;;;;5013596;28;20527;-82
2022/01/29 03:14:39;;;;;;;14.50;10.80;;;15.90;58.90;;;;;;5012068;28;20538;-82
2022/01/29 03:17:07;;;;;;;19.47;11.90;;;15.90;59.00;;;;;;5013946;28;20472;-82
2022/01/29 03:19:35;;;;;;;17.60;10.60;;;15.90;58.90;;;;;;5010447;28;20455;-82
2022/01/29 03:22:04;;;;;;;19.70;11.17;;;15.90;58.90;;;;;;5015137;28;20869;-82
2022/01/29 03:24:31;;;;;;;17.00;10.93;;;15.90;59.00;;;;;;5017940;28;20460;-81
2022/01/29 03:26:59;;;;;;;15.33;10.90;;;15.90;58.80;;;;;;5006528;28;20480;-81
2022/01/29 03:29:29;;;;;;;15.80;10.40;;;15.90;58.90;;;;;;5006676;28;20461;-82
2022/01/29 03:31:57;;;;;;;19.13;10.77;;;15.90;58.80;;;;;;5013329;28;20433;-82
2022/01/29 03:34:25;;;;;;;17.90;11.37;;;15.90;58.90;;;;;;5016566;28;21013;-82
2022/01/29 03:36:55;;;;;;;18.70;10.77;;;15.90;58.90;;;;;;5014615;28;20441;-82
2022/01/29 03:39:25;;;;;;;19.37;11.30;;;15.90;58.80;;;;;;5014859;28;20479;-82
2022/01/29 03:41:54;;;;;;;17.77;10.87;;;15.90;58.80;;;;;;5013997;28;20970;-82
2022/01/29 03:44:22;;;;;;;17.60;10.83;;;16.00;58.80;;;;;;5014534;28;20514;-82
2022/01/29 03:46:51;;;;;;;16.10;10.53;;;15.90;58.80;;;;;;5014316;28;20436;-82
2022/01/29 03:49:19;;;;;;;14.90;10.70;;;16.00;58.90;;;;;;5014513;28;20503;-81
2022/01/29 03:51:48;;;;;;;16.60;11.00;;;16.00;59.00;;;;;;5017082;28;20491;-81
2022/01/29 03:54:15;;;;;;;15.67;10.40;;;16.00;58.90;;;;;;5013750;28;20453;-82
2022/01/29 03:56:44;;;;;;;16.40;10.40;;;16.00;59.00;;;;;;5014610;28;20448;-81
2022/01/29 03:59:12;;;;;;;15.43;10.37;;;16.00;59.00;;;;;;5014634;28;20487;-81
2022/01/29 04:01:41;;;;;;;17.73;10.00;;;15.90;58.80;;;;;;5014121;28;20475;-81
2022/01/29 04:04:10;;;;;;;14.10;10.07;;;16.00;59.00;;;;;;5015018;28;20456;-80
2022/01/29 04:06:38;;;;;;;18.00;10.87;;;16.00;59.00;;;;;;5014778;28;20437;-81
2022/01/29 04:09:11;;;;;;;18.73;11.80;;;16.00;58.90;;;;;;5010099;28;20473;-81
2022/01/29 04:11:39;;;;;;;17.90;10.60;;;16.00;59.00;;;;;;5009860;28;21003;-81
2022/01/29 04:14:14;;;;;;;18.37;10.50;;;16.00;59.00;;;;;;5013621;28;20460;-82
2022/01/29 04:16:42;;;;;;;17.33;10.60;;;16.00;58.90;;;;;;5012472;28;20865;-82
2022/01/29 04:19:11;;;;;;;15.13;10.80;;;16.00;59.00;;;;;;5013856;28;20428;-82
2022/01/29 04:21:41;;;;;;;17.17;10.27;;;16.00;58.90;;;;;;5014172;28;20432;-81
2022/01/29 04:24:09;;;;;;;16.57;10.90;;;16.00;58.90;;;;;;5011612;28;20460;-82
2022/01/29 04:26:37;;;;;;;16.10;11.00;;;16.00;58.90;;;;;;5013040;28;20539;-82
2022/01/29 04:29:07;;;;;;;21.20;10.90;;;16.00;59.00;;;;;;5013958;28;20468;-83
2022/01/29 04:31:42;;;;;;;15.63;10.70;;;16.00;59.00;;;;;;5015297;28;20457;-83
2022/01/29 04:34:12;;;;;;;17.27;11.30;;;16.00;58.90;;;;;;5013323;28;21057;-83
2022/01/29 04:36:40;;;;;;;15.20;10.40;;;16.00;59.00;;;;;;5015161;28;20863;-83
2022/01/29 04:39:08;;;;;;;15.60;10.70;;;16.00;58.80;;;;;;5009231;28;20496;-82
2022/01/29 04:41:36;;;;;;;15.10;10.20;;;16.00;59.00;;;;;;5014590;28;20456;-82
2022/01/29 04:44:04;;;;;;;16.80;10.13;;;16.00;58.90;;;;;;5013026;28;20508;-82
2022/01/29 04:46:32;;;;;;;18.13;11.70;;;16.00;58.80;;;;;;5008971;28;20428;-81
2022/01/29 04:49:01;;;;;;;18.60;11.30;;;16.00;58.90;;;;;;5009742;28;20558;-82
2022/01/29 04:51:30;;;;;;;19.13;11.60;;;16.00;58.90;;;;;;5015187;28;20475;-82
2022/01/29 04:53:58;;;;;;;16.17;10.53;;;16.00;58.90;;;;;;5014644;28;20518;-81
2022/01/29 04:56:26;;;;;;;16.67;10.27;;;16.10;59.00;;;;;;5014947;28;20536;-82
2022/01/29 04:58:54;;;;;;;14.23;9.97;;;16.00;58.80;;;;;;5015312;28;20431;-81
2022/01/29 05:01:22;;;;;;;13.93;10.00;;;16.00;58.90;;;;;;5009866;28;20476;-82
2022/01/29 05:03:50;;;;;;;14.20;9.77;;;16.00;59.00;;;;;;5012641;28;20472;-82
2022/01/29 05:06:19;;;;;;;15.33;10.30;;;16.10;59.10;;;;;;5006988;28;20458;-81
2022/01/29 05:08:48;;;;;;;15.43;10.10;;;16.10;59.00;;;;;;5025621;28;20523;-82
2022/01/29 05:11:17;;;;;;;16.23;9.83;;;16.10;59.10;;;;;;5014455;28;20433;-82
2022/01/29 05:13:45;;;;;;;15.93;9.70;;;16.10;59.70;;;;;;5013939;28;20524;-82
2022/01/29 05:27:31;;;;;;;15.20;8.80;;;16.10;59.00;;;;;;4953463;28;20998;-81
2022/01/29 05:29:59;;;;;;;13.67;9.30;;;16.10;59.00;;;;;;4989024;28;20493;-81
2022/01/29 05:32:27;;;;;;;13.47;9.57;;;16.10;59.10;;;;;;4998627;28;20536;-80
2022/01/29 05:34:55;;;;;;;12.40;9.27;;;16.10;59.00;;;;;;4998190;28;20512;-81
2022/01/29 05:37:40;;;;;;;15.07;9.03;;;16.10;59.00;;;;;;5014694;28;20456;-81
2022/01/29 05:40:11;;;;;;;12.60;9.30;;;16.10;59.10;;;;;;5017839;28;20458;-80
2022/01/29 05:42:39;;;;;;;17.57;10.17;;;16.10;58.90;;;;;;5018330;28;20547;-81
2022/01/29 05:45:08;;;;;;;21.53;10.43;;;16.10;59.00;;;;;;5018256;28;20464;-81
2022/01/29 05:47:36;;;;;;;12.70;9.27;;;16.10;59.00;;;;;;5018176;28;20474;-81
2022/01/29 05:50:05;;;;;;;15.13;9.83;;;16.10;59.00;;;;;;5019092;28;20487;-81
2022/01/29 05:52:33;;;;;;;14.57;9.60;;;16.10;59.00;;;;;;5018689;28;20473;-82
2022/01/29 05:55:04;;;;;;;14.40;9.87;;;16.10;58.90;;;;;;5021622;28;20597;-82
2022/01/29 05:57:33;;;;;;;14.40;9.33;;;16.20;58.90;;;;;;5018057;28;20436;-82
2022/01/29 06:00:01;;;;;;;16.10;10.40;;;16.10;58.90;;;;;;5014986;28;20470;-81
2022/01/29 06:02:30;;;;;;;15.60;9.60;;;16.10;58.90;;;;;;5018810;28;20436;-81
2022/01/29 06:04:58;;;;;;;14.57;9.47;;;16.10;58.90;;;;;;5017414;28;20464;-80
2022/01/29 06:07:26;;;;;;;13.67;9.60;;;16.10;59.00;;;;;;5017670;28;20518;-80
2022/01/29 06:09:54;;;;;;;13.30;9.03;;;16.10;59.00;;;;;;5017710;28;20474;-81
2022/01/29 06:12:22;;;;;;;15.37;9.80;;;16.10;59.00;;;;;;5021167;28;20440;-81
2022/01/29 06:14:52;;;;;;;15.37;10.10;;;16.10;59.00;;;;;;5000661;28;20515;-81
2022/01/29 06:17:20;;;;;;;16.43;9.20;;;16.10;59.10;;;;;;4998233;28;20460;-82
2022/01/29 06:19:49;;;;;;;13.87;8.87;;;16.10;59.00;;;;;;4998305;28;20464;-82
2022/01/29 06:22:22;;;;;;;12.20;9.00;;;16.20;59.00;;;;;;4998027;28;20445;-81
2022/01/29 06:24:50;;;;;;;13.43;8.70;;;16.10;59.10;;;;;;4998159;28;20499;-80
2022/01/29 06:27:18;;;;;;;13.07;8.63;;;16.10;59.00;;;;;;4997629;28;20481;-81
2022/01/29 06:29:46;;;;;;;11.60;8.30;;;16.10;59.10;;;;;;5016005;28;20506;-81
2022/01/29 06:32:17;;;;;;;13.50;8.57;;;16.10;59.10;;;;;;5009131;28;20424;-81
2022/01/29 06:34:45;;;;;;;12.73;8.30;;;16.10;59.70;;;;;;5017358;28;20471;-82
2022/01/29 06:37:13;;;;;;;12.07;8.00;;;16.10;59.10;;;;;;5017316;28;20452;-81
2022/01/29 06:39:41;;;;;;;11.90;8.33;;;16.10;59.10;;;;;;5015979;28;20456;-81
2022/01/29 06:42:09;;;;;;;13.13;8.27;;;16.10;59.20;;;;;;5016589;28;20498;-82
2022/01/29 06:44:37;;;;;;;13.10;8.30;;;16.10;59.20;;;;;;5017090;28;20480;-82
2022/01/29 06:47:05;;;;;;;8.93;7.20;;;16.20;59.20;;;;;;5001094;28;20476;-81
2022/01/29 06:49:35;;;;;;;11.17;7.50;;;16.10;59.10;;;;;;5013140;28;20512;-79
2022/01/29 06:52:03;;;;;;;8.97;6.90;;;16.10;59.20;;;;;;5016652;28;20433;-80
2022/01/29 06:54:34;;;;;;;11.30;7.03;;;16.10;59.10;;;;;;5016621;28;20449;-81
2022/01/29 06:57:02;;;;;;;12.83;8.60;;;16.20;59.20;;;;;;5016456;28;20495;-81
2022/01/29 06:59:30;;;;;;;9.47;7.50;;;16.20;59.30;;;;;;5016822;28;20473;-81
2022/01/29 07:01:58;;;;;;;9.27;6.80;;;16.10;59.10;;;;;;5016340;28;20463;-82
2022/01/29 07:04:26;;;;;;;8.37;6.50;;;16.20;59.20;;;;;;5005198;28;20478;-81
2022/01/29 07:06:55;;;;;;;10.67;7.03;;;16.20;59.30;;;;;;5015268;28;20472;-82
2022/01/29 07:09:23;;;;;;;8.70;7.17;;;16.20;59.30;;;;;;5017636;28;20527;-82
2022/01/29 07:11:55;;;;;;;8.27;7.03;;;16.10;59.70;;;;;;5017549;28;20439;-82
2022/01/29 07:14:23;;;;;;;7.50;6.30;;;16.10;59.10;;;;;;5017149;28;20491;-82
2022/01/29 07:16:51;;;;;;;7.37;6.20;;;16.20;59.30;;;;;;5016131;28;20476;-82
2022/01/29 07:19:20;;;;;;;8.47;6.53;;;16.20;59.30;;;;;;5019264;28;20458;-82
2022/01/29 07:21:48;;;;;;;8.80;6.50;;;16.20;59.30;;;;;;5001982;28;20445;-81
2022/01/29 07:24:17;;;;;;;9.63;6.97;;;16.20;59.40;;;;;;5015932;28;20495;-80
2022/01/29 07:26:45;;;;;;;7.10;6.00;;;16.20;59.30;;;;;;5015484;28;20479;-81
2022/01/29 07:29:13;;;;;;;7.07;6.37;;;16.20;59.30;;;;;;5016006;28;20476;-81
2022/01/29 07:31:41;;;;;;;6.60;5.63;;;16.20;59.20;;;;;;5015377;28;20468;-81
2022/01/29 07:34:09;;;;;;;9.17;6.70;;;16.20;59.20;;;;;;5015478;28;20460;-81
2022/01/29 07:36:37;;;;;;;8.77;6.50;;;16.20;59.20;;;;;;5004642;28;20452;-80
2022/01/29 07:39:05;;;;;;;7.70;5.67;;;16.20;59.30;;;;;;5007245;28;20479;-82
2022/01/29 07:41:34;;;;;;;9.50;6.27;;;16.20;59.30;;;;;;5015183;28;20432;-81
2022/01/29 07:44:02;;;;;;;9.97;6.20;;;16.20;59.30;;;;;;5015509;28;20910;-81
2022/01/29 07:46:30;;;;;;;8.17;6.33;;;16.20;59.40;;;;;;5015236;28;20468;-81
2022/01/29 07:48:59;;;;;;;9.40;6.37;;;16.20;59.40;;;;;;5014878;28;20428;-81
2022/01/29 07:51:27;;;;;;;7.33;5.43;;;16.20;59.40;;;;;;5015439;28;20483;-81
2022/01/29 07:53:55;;;;;;;6.90;5.47;;;16.20;59.40;;;;;;5016241;28;20514;-81
2022/01/29 07:56:23;;;;;;;7.53;5.70;;;16.20;59.40;;;;;;5004490;28;20504;-81
2022/01/29 07:58:53;;;;;;;8.00;6.07;;;16.20;59.40;;;;;;5009937;28;20472;-82
2022/01/29 08:01:20;;;;;;;6.13;5.47;;;16.30;59.40;;;;;;5014370;28;20445;-82
2022/01/29 08:03:50;;;;;;;9.60;5.93;;;16.30;59.40;;;;;;5014966;28;20468;-82
2022/01/29 08:06:19;;;;;;;6.20;5.33;;;16.30;59.40;;;;;;5015625;28;20448;-82
2022/01/29 08:08:48;;;;;;;10.40;5.70;;;16.30;59.30;;;;;;5015482;28;20436;-80
2022/01/29 08:11:16;;;;;;;6.67;5.33;;;16.30;59.30;;;;;;5017889;28;20500;-81
2022/01/29 08:13:46;;;;;;;6.70;5.50;;;16.30;59.40;;;;;;5007308;28;20457;-80
2022/01/29 08:16:15;;;;;;;8.77;5.90;;;16.30;59.30;;;;;;5003997;28;20436;-81
2022/01/29 08:18:45;;;;;;;6.13;5.30;;;16.30;59.40;;;;;;5012229;28;20444;-81
2022/01/29 08:21:13;;;;;;;5.40;4.90;;;16.30;59.50;;;;;;5014343;28;20433;-81
2022/01/29 08:23:41;;;;;;;6.27;5.50;;;16.30;59.40;;;;;;5014409;28;20463;-81
2022/01/29 08:26:09;;;;;;;7.17;5.57;;;16.30;59.40;;;;;;5014199;28;20444;-82
2022/01/29 08:28:37;;;;;;;5.83;5.33;;;16.30;59.50;;;;;;5011192;28;20477;-82
2022/01/29 08:31:06;;;;;;;5.73;5.23;;;16.40;59.50;;;;;;5013819;28;20500;-81
2022/01/29 08:33:35;;;;;;;11.90;5.60;;;16.40;59.50;;;;;;5015583;28;20467;-82
2022/01/29 08:36:04;;;;;;;5.17;4.67;;;16.40;59.40;;;;;;5012805;28;20487;-81
2022/01/29 08:38:32;;;;;;;7.00;4.93;;;16.40;59.40;;;;;;5014562;28;20448;-81
2022/01/29 08:41:00;;;;;;;5.33;4.83;;;16.40;59.40;;;;;;5014331;28;20487;-81
2022/01/29 08:43:28;;;;;;;7.73;5.47;;;16.40;59.40;;;;;;5016530;28;20477;-81
2022/01/29 08:45:56;;;;;;;6.60;4.93;;;16.40;59.40;;;;;;5011981;28;20447;-82
2022/01/29 08:48:24;;;;;;;6.10;4.90;;;16.40;59.40;;;;;;5014386;28;20425;-80
2022/01/29 08:50:54;;;;;;;5.87;4.83;;;16.40;59.40;;;;;;5010482;28;20522;-82
2022/01/29 08:53:21;;;;;;;5.70;4.70;;;16.50;59.50;;;;;;5015586;28;20468;-84
2022/01/29 08:55:49;;;;;;;6.20;4.63;;;16.50;59.40;;;;;;5015635;28;20932;-82
2022/01/29 08:58:17;;;;;;;5.00;4.37;;;16.50;59.50;;;;;;5014757;28;20452;-82
2022/01/29 09:00:46;;;;;;;4.63;4.27;;;16.50;59.50;;;;;;5015810;28;20461;-83
2022/01/29 09:03:15;;;;;;;5.57;4.97;;;16.50;59.50;;;;;;5011239;28;20472;-82
2022/01/29 09:05:46;;;;;;;4.80;4.30;;;16.50;59.40;;;;;;5013571;28;20464;-82
2022/01/29 09:08:17;;;;;;;5.00;4.47;;;16.50;59.40;;;;;;5016716;28;20471;-84
2022/01/29 09:10:46;;;;;;;4.43;4.00;;;16.60;59.50;;;;;;5018827;28;20534;-84
2022/01/29 09:13:14;;;;;;;5.50;4.50;;;16.60;59.50;;;;;;5017868;28;20448;-83
2022/01/29 09:15:42;;;;;;;5.07;4.57;;;16.60;59.40;;;;;;5015649;28;20460;-82
2022/01/29 09:18:11;;;;;;;5.13;4.17;;;16.60;59.40;;;;;;5009925;28;20432;-82
2022/01/29 09:20:48;;;;;;;4.73;4.33;;;16.60;59.40;;;;;;5015227;28;20543;-82
2022/01/29 09:23:17;;;;;;;4.70;4.13;;;16.60;59.40;;;;;;5016575;28;20413;-83
2022/01/29 09:25:52;;;;;;;4.23;3.93;;;16.60;59.40;;;;;;5015956;28;20436;-83
2022/01/29 09:28:22;;;;;;;4.17;3.83;;;16.60;59.50;;;;;;5016903;28;20436;-83
2022/01/29 09:30:53;;;;;;;4.57;4.17;;;16.60;59.40;;;;;;5016370;28;20570;-82
2022/01/29 09:33:21;;;;;;;4.73;3.87;;;16.70;59.50;;;;;;5018133;28;20483;-83
2022/01/29 09:35:49;;;;;;;4.33;3.93;;;16.70;59.40;;;;;;5007703;28;20433;-83
2022/01/29 09:38:18;;;;;;;4.07;3.77;;;16.70;59.40;;;;;;4997143;28;20462;-83
2022/01/29 09:40:47;;;;;;;4.20;3.90;;;16.70;59.40;;;;;;4995841;28;20425;-80
2022/01/29 09:43:15;;;;;;;6.53;4.10;;;16.70;59.60;;;;;;4996152;28;20429;-82
2022/01/29 09:45:43;;;;;;;3.87;3.57;;;16.70;59.50;;;;;;5013097;28;20437;-82
2022/01/29 09:48:12;;;;;;;4.90;3.83;;;16.60;59.40;;;;;;5013527;28;20450;-84
2022/01/29 09:50:45;;;;;;;7.97;4.37;;;16.70;59.60;;;;;;5018423;28;20479;-85
2022/01/29 09:53:13;;;;;;;4.50;4.00;;;16.70;59.50;;;;;;5012200;28;20452;-83
2022/01/29 09:55:43;;;;;;;3.80;3.50;;;16.70;59.60;;;;;;4996364;28;20512;-83
2022/01/29 09:58:14;;;;;;;4.30;3.90;;;16.70;59.50;;;;;;4996105;28;20500;-82
2022/01/29 10:00:42;;;;;;;4.53;4.10;;;16.70;59.60;;;;;;5011704;28;20501;-81
2022/01/29 10:03:20;;;;;;;4.23;3.93;;;16.70;59.40;;;;;;5014886;28;20916;-81
2022/01/29 10:05:50;;;;;;;5.43;4.40;;;16.70;59.60;;;;;;5013963;28;20433;-80
2022/01/29 10:08:20;;;;;;;5.37;4.10;;;16.70;59.60;;;;;;5017739;28;20445;-81
2022/01/29 10:10:51;;;;;;;5.03;4.30;;;16.70;59.60;;;;;;4999342;28;20461;-80
2022/01/29 10:13:30;;;;;;;4.80;4.37;;;16.70;59.60;;;;;;4995220;28;20461;-80
2022/01/29 10:16:07;;;;;;;4.17;3.77;;;16.70;59.60;;;;;;5009739;28;20479;-83
2022/01/29 10:18:35;;;;;;;5.00;4.43;;;16.70;59.60;;;;;;5018985;28;20428;-83
2022/01/29 10:21:14;;;;;;;6.00;3.97;;;16.70;59.60;;;;;;5018227;28;20441;-81
2022/01/29 10:23:43;;;;;;;4.30;3.90;;;16.80;59.70;;;;;;5020744;28;20475;-83
2022/01/29 10:26:25;;;;;;;16.03;10.83;;;16.80;59.70;;;;;;5013479;28;20488;-83
2022/01/29 10:28:53;;;;;;;11.87;8.37;;;14.20;66.80;;;;;;5011452;28;20452;-84
2022/01/29 10:31:21;;;;;;;17.03;8.90;;;13.50;73.20;;;;;;5015903;28;20492;-84
2022/01/29 10:33:51;;;;;;;15.63;9.90;;;13.50;72.90;;;;;;5015870;28;20496;-84
2022/01/29 10:36:20;;;;;;;16.83;10.10;;;12.60;75.80;;;;;;5015931;28;20468;-84
2022/01/29 10:38:50;;;;;;;14.73;8.77;;;12.00;81.00;;;;;;5015909;28;20432;-84
2022/01/29 10:41:24;;;;;;;12.20;9.67;;;12.00;85.10;;;;;;5019154;28;20456;-83
2022/01/29 10:44:14;;;;;;;15.53;9.50;;;11.70;87.70;;;;;;5015908;28;20467;-84
2022/01/29 10:46:47;;;;;;;14.97;9.87;;;11.80;90.80;;;;;;5018789;28;20462;-83
2022/01/29 10:49:20;;;;;;;15.17;9.50;;;11.80;90.80;;;;;;5018025;28;20498;-83
2022/01/29 10:52:01;;;;;;;17.67;9.63;;;11.80;91.40;;;;;;5017769;28;20523;-82
2022/01/29 10:54:29;;;;;;;13.73;8.60;;;11.90;91.70;;;;;;5017967;28;20983;-83
2022/01/29 10:57:00;;;;;;;12.87;8.40;;;11.80;92.10;;;;;;5017529;28;20491;-82
2022/01/29 10:59:29;;;;;;;15.73;8.33;;;11.70;92.80;;;;;;5020713;28;20479;-81
2022/01/29 11:01:58;;;;;;;12.20;7.90;;;11.60;94.00;;;;;;5016581;28;20437;-81
2022/01/29 11:04:27;;;;;;;21.30;7.80;;;11.70;94.20;;;;;;5018354;28;20452;-83
2022/01/29 11:06:57;;;;;;;14.03;7.10;;;11.50;94.80;;;;;;5011472;28;20456;-83
2022/01/29 11:09:29;;;;;;;10.90;7.20;;;11.70;95.40;;;;;;5012835;28;20453;-82
2022/01/29 11:11:59;;;;;;;15.03;7.60;;;11.60;95.20;;;;;;5010454;28;20468;-84
2022/01/29 11:14:27;;;;;;;14.23;6.40;;;11.70;96.00;;;;;;5015892;28;20483;-81
2022/01/29 11:16:55;;;;;;;9.07;5.70;;;12.70;98.50;;;;;;5018014;28;20455;-81
2022/01/29 11:19:24;;;;;;;7.60;5.07;;;13.70;95.20;;;;;;5017410;28;20433;-81
2022/01/29 11:21:55;;;;;;;7.23;4.73;;;14.40;92.20;;;;;;5016520;28;20433;-81
2022/01/29 11:24:24;;;;;;;6.57;5.20;;;14.90;89.70;;;;;;5016218;28;20811;-80
2022/01/29 11:26:53;;;;;;;6.60;4.77;;;15.30;85.40;;;;;;5015799;28;20445;-79
2022/01/29 11:29:32;;;;;;;5.73;4.70;;;15.50;82.50;;;;;;5016388;28;20499;-79
2022/01/29 11:32:32;;;;;;;6.67;4.10;;;15.70;79.70;;;;;;5016218;28;20965;-79
2022/01/29 11:35:05;;;;;;;6.17;4.20;;;15.90;77.50;;;;;;5004637;28;20469;-80
2022/01/29 11:37:47;;;;;;;6.67;3.60;;;16.00;76.10;;;;;;5015798;28;20503;-80
2022/01/29 11:40:25;;;;;;;11.43;3.57;;;16.20;74.70;;;;;;5019194;28;20467;-82
2022/01/29 11:42:58;;;;;;;7.77;2.87;;;16.50;80.30;;;;;;5019346;28;20409;-82
2022/01/29 11:45:42;;;;;;;14.60;3.30;;;17.40;81.90;;;;;;5017134;28;20444;-83
2022/01/29 11:48:41;;;;;;;28.40;4.40;;;18.10;79.30;;;;;;5013258;28;20876;-83
2022/01/29 11:51:10;;;;;;;18.60;4.27;;;18.40;77.10;;;;;;5013477;28;20452;-82
2022/01/29 11:53:57;;;;;;;14.50;3.93;;;18.60;77.10;;;;;;5018869;28;20493;-84
2022/01/29 11:56:32;;;;;;;15.27;4.13;;;18.80;78.50;;;;;;5016281;28;20437;-81
2022/01/29 11:59:27;;;;;;;25.40;4.00;;;18.80;77.70;;;;;;5017677;28;20459;-84
2022/01/29 12:01:58;;;;;;;23.47;4.13;;;18.90;78.40;;;;;;5021574;28;20460;-84
2022/01/29 12:05:03;;;;;;;13.70;3.70;;;19.00;79.50;;;;;;5019117;28;20468;-85
2022/01/29 12:07:35;;;;;;;11.73;3.83;;;19.10;79.70;;;;;;5011599;28;20412;-84
2022/01/29 12:10:05;;;;;;;7.60;3.83;;;19.10;80.40;;;;;;5006331;28;20426;-82
2022/01/29 12:12:36;;;;;;;8.40;3.87;;;19.10;80.40;;;;;;5001834;28;20476;-83
2022/01/29 12:15:36;;;;;;;13.80;3.40;;;19.10;80.70;;;;;;5001184;28;20453;-83
2022/01/29 12:18:20;;;;;;;18.30;4.57;;;19.20;79.60;;;;;;4998882;28;20430;-79
2022/01/29 12:20:49;;;;;;;22.90;4.00;;;19.20;79.30;;;;;;4999831;28;20473;-80
2022/01/29 12:23:16;;;;;;;16.67;4.03;;;19.20;80.70;;;;;;5025382;28;20445;-81
2022/01/29 12:25:53;;;;;;;9.87;3.57;;;19.20;81.10;;;;;;5019183;28;20448;-84
2022/01/29 12:28:24;;;;;;;21.97;4.00;;;19.30;81.30;;;;;;5018300;28;20444;-83
2022/01/29 12:30:52;;;;;;;19.90;3.53;;;19.30;81.00;;;;;;5025164;28;20448;-83
2022/01/29 12:33:23;;;;;;;31.67;3.60;;;19.40;79.70;;;;;;5023279;28;20479;-82
2022/01/29 12:35:54;;;;;;;18.30;3.33;;;19.40;79.30;;;;;;5021493;28;20425;-81
2022/01/29 12:38:25;;;;;;;13.67;4.00;;;19.40;79.20;;;;;;5024481;28;20569;-81
2022/01/29 12:40:56;;;;;;;11.70;3.07;;;19.40;79.60;;;;;;5021880;28;20432;-81
2022/01/29 12:43:28;;;;;;;11.27;3.80;;;19.40;79.70;;;;;;5028021;28;20459;-82
2022/01/29 12:46:06;;;;;;;17.40;3.30;;;19.30;79.90;;;;;;5042685;28;20450;-82
2022/01/29 12:48:36;;;;;;;21.37;4.47;;;19.40;79.50;;;;;;5041579;28;20441;-80
2022/01/29 12:51:05;;;;;;;18.13;4.33;;;19.40;80.40;;;;;;5008455;28;20437;-83
2022/01/29 12:53:34;;;;;;;16.23;4.40;;;19.40;80.00;;;;;;5018173;28;20502;-84
2022/01/29 12:56:03;;;;;;;22.63;3.17;;;19.40;80.90;;;;;;5022590;28;20448;-84
2022/01/29 12:59:12;;;;;;;10.60;3.33;;;19.40;82.20;;;;;;5024289;28;20491;-84
2022/01/29 13:01:41;;;;;;;20.13;4.27;;;19.60;79.50;;;;;;5016630;28;20444;-83
2022/01/29 13:04:13;;;;;;;13.83;4.13;;;19.60;78.20;;;;;;5017502;28;20460;-82